sensor_id;sensor_type;location;lat;lon;timestamp;P1;durP1;ratioP1;P2;durP2;ratioP2
67108;SDS011;54027;50.786;7.058;2023-04-28T00:02:01;9.55;;;5.05;;
67108;SDS011;54027;50.786;7.058;2023-04-28T00:04:27;8.48;;;4.75;;
67108;SDS011;54027;50.786;7.058;2023-04-28T00:06:53;11.10;;;5.63;;
67108;SDS011;54027;50.786;7.058;2023-04-28T00:09:18;8.85;;;4.57;;
67108;SDS011;54027;50.786;7.058;2023-04-28T00:11:44;6.85;;;4.72;;
67108;SDS011;54027;50.786;7.058;2023-04-28T00:14:10;12.35;;;5.45;;
67108;SDS011;54027;50.786;7.058;2023-04-28T00:16:36;10.60;;;4.65;;
67108;SDS011;54027;50.786;7.058;2023-04-28T00:19:01;7.03;;;4.20;;
67108;SDS011;54027;50.786;7.058;2023-04-28T00:21:27;7.22;;;4.05;;
67108;SDS011;54027;50.786;7.058;2023-04-28T00:23:52;7.32;;;4.18;;
67108;SDS011;54027;50.786;7.058;2023-04-28T00:26:18;7.15;;;4.80;;
67108;SDS011;54027;50.786;7.058;2023-04-28T00:28:43;9.93;;;5.25;;
67108;SDS011;54027;50.786;7.058;2023-04-28T00:31:10;7.55;;;4.90;;
67108;SDS011;54027;50.786;7.058;2023-04-28T00:33:40;6.95;;;4.20;;
67108;SDS011;54027;50.786;7.058;2023-04-28T00:36:06;7.40;;;4.43;;
67108;SDS011;54027;50.786;7.058;2023-04-28T00:38:32;7.82;;;4.38;;
67108;SDS011;54027;50.786;7.058;2023-04-28T00:40:57;7.93;;;4.95;;
67108;SDS011;54027;50.786;7.058;2023-04-28T00:43:23;11.60;;;4.57;;
67108;SDS011;54027;50.786;7.058;2023-04-28T00:45:49;7.97;;;4.90;;
67108;SDS011;54027;50.786;7.058;2023-04-28T00:48:16;7.60;;;4.30;;
67108;SDS011;54027;50.786;7.058;2023-04-28T00:50:45;10.32;;;4.20;;
67108;SDS011;54027;50.786;7.058;2023-04-28T00:53:12;6.55;;;3.78;;
67108;SDS011;54027;50.786;7.058;2023-04-28T00:55:37;7.43;;;3.67;;
67108;SDS011;54027;50.786;7.058;2023-04-28T00:58:06;9.82;;;3.80;;
67108;SDS011;54027;50.786;7.058;2023-04-28T01:00:32;12.00;;;4.28;;
67108;SDS011;54027;50.786;7.058;2023-04-28T01:02:58;8.68;;;4.53;;
67108;SDS011;54027;50.786;7.058;2023-04-28T01:05:24;6.20;;;3.65;;
67108;SDS011;54027;50.786;7.058;2023-04-28T01:07:51;9.85;;;4.07;;
67108;SDS011;54027;50.786;7.058;2023-04-28T01:10:17;5.88;;;3.67;;
67108;SDS011;54027;50.786;7.058;2023-04-28T01:12:42;7.60;;;3.58;;
67108;SDS011;54027;50.786;7.058;2023-04-28T01:15:08;7.93;;;3.72;;
67108;SDS011;54027;50.786;7.058;2023-04-28T01:17:40;5.30;;;3.60;;
67108;SDS011;54027;50.786;7.058;2023-04-28T01:20:06;9.15;;;4.10;;
67108;SDS011;54027;50.786;7.058;2023-04-28T01:22:32;8.07;;;4.07;;
67108;SDS011;54027;50.786;7.058;2023-04-28T01:24:57;10.25;;;4.18;;
67108;SDS011;54027;50.786;7.058;2023-04-28T01:27:24;8.15;;;3.97;;
67108;SDS011;54027;50.786;7.058;2023-04-28T01:29:50;6.03;;;4.28;;
67108;SDS011;54027;50.786;7.058;2023-04-28T01:32:15;8.98;;;4.65;;
67108;SDS011;54027;50.786;7.058;2023-04-28T01:34:41;11.20;;;4.90;;
67108;SDS011;54027;50.786;7.058;2023-04-28T01:37:06;9.40;;;4.97;;
67108;SDS011;54027;50.786;7.058;2023-04-28T01:39:31;6.28;;;4.70;;
67108;SDS011;54027;50.786;7.058;2023-04-28T01:41:57;8.32;;;4.45;;
67108;SDS011;54027;50.786;7.058;2023-04-28T01:44:23;8.77;;;4.80;;
67108;SDS011;54027;50.786;7.058;2023-04-28T01:46:48;8.38;;;5.13;;
67108;SDS011;54027;50.786;7.058;2023-04-28T01:49:13;9.80;;;4.60;;
67108;SDS011;54027;50.786;7.058;2023-04-28T01:51:51;10.15;;;4.95;;
67108;SDS011;54027;50.786;7.058;2023-04-28T01:54:17;10.10;;;5.07;;
67108;SDS011;54027;50.786;7.058;2023-04-28T01:57:01;9.88;;;4.97;;
67108;SDS011;54027;50.786;7.058;2023-04-28T01:59:27;7.75;;;5.05;;
67108;SDS011;54027;50.786;7.058;2023-04-28T02:01:52;11.88;;;5.25;;
67108;SDS011;54027;50.786;7.058;2023-04-28T02:04:17;9.45;;;5.25;;
67108;SDS011;54027;50.786;7.058;2023-04-28T02:06:43;9.50;;;5.53;;
67108;SDS011;54027;50.786;7.058;2023-04-28T02:09:08;9.63;;;5.20;;
67108;SDS011;54027;50.786;7.058;2023-04-28T02:11:34;8.55;;;5.22;;
67108;SDS011;54027;50.786;7.058;2023-04-28T02:13:59;11.15;;;5.00;;
67108;SDS011;54027;50.786;7.058;2023-04-28T02:16:25;11.32;;;5.82;;
67108;SDS011;54027;50.786;7.058;2023-04-28T02:18:50;9.20;;;5.20;;
67108;SDS011;54027;50.786;7.058;2023-04-28T02:21:15;9.57;;;5.18;;
67108;SDS011;54027;50.786;7.058;2023-04-28T02:23:41;11.05;;;5.40;;
67108;SDS011;54027;50.786;7.058;2023-04-28T02:26:06;9.68;;;5.28;;
67108;SDS011;54027;50.786;7.058;2023-04-28T02:28:32;9.48;;;6.05;;
67108;SDS011;54027;50.786;7.058;2023-04-28T02:31:08;7.32;;;5.80;;
67108;SDS011;54027;50.786;7.058;2023-04-28T02:33:35;10.07;;;5.40;;
67108;SDS011;54027;50.786;7.058;2023-04-28T02:36:01;11.43;;;5.10;;
67108;SDS011;54027;50.786;7.058;2023-04-28T02:38:27;7.45;;;5.40;;
67108;SDS011;54027;50.786;7.058;2023-04-28T02:41:00;7.32;;;5.45;;
67108;SDS011;54027;50.786;7.058;2023-04-28T02:43:30;9.77;;;6.20;;
67108;SDS011;54027;50.786;7.058;2023-04-28T02:45:56;8.82;;;6.18;;
67108;SDS011;54027;50.786;7.058;2023-04-28T02:48:25;9.82;;;6.35;;
67108;SDS011;54027;50.786;7.058;2023-04-28T02:50:51;9.88;;;6.60;;
67108;SDS011;54027;50.786;7.058;2023-04-28T02:53:17;9.27;;;6.78;;
67108;SDS011;54027;50.786;7.058;2023-04-28T02:55:43;9.15;;;6.28;;
67108;SDS011;54027;50.786;7.058;2023-04-28T02:58:09;8.43;;;6.63;;
67108;SDS011;54027;50.786;7.058;2023-04-28T03:00:34;9.77;;;6.28;;
67108;SDS011;54027;50.786;7.058;2023-04-28T03:03:00;10.98;;;6.50;;
67108;SDS011;54027;50.786;7.058;2023-04-28T03:05:26;11.45;;;6.50;;
67108;SDS011;54027;50.786;7.058;2023-04-28T03:07:51;11.02;;;6.93;;
67108;SDS011;54027;50.786;7.058;2023-04-28T03:10:17;9.50;;;6.75;;
67108;SDS011;54027;50.786;7.058;2023-04-28T03:12:42;12.48;;;7.10;;
67108;SDS011;54027;50.786;7.058;2023-04-28T03:15:08;15.18;;;7.50;;
67108;SDS011;54027;50.786;7.058;2023-04-28T03:17:34;11.82;;;7.53;;
67108;SDS011;54027;50.786;7.058;2023-04-28T03:20:03;15.30;;;7.35;;
67108;SDS011;54027;50.786;7.058;2023-04-28T03:22:29;12.85;;;7.75;;
67108;SDS011;54027;50.786;7.058;2023-04-28T03:24:54;12.45;;;7.82;;
67108;SDS011;54027;50.786;7.058;2023-04-28T03:27:20;10.32;;;6.80;;
67108;SDS011;54027;50.786;7.058;2023-04-28T03:29:46;13.27;;;6.85;;
67108;SDS011;54027;50.786;7.058;2023-04-28T03:32:11;9.68;;;6.97;;
67108;SDS011;54027;50.786;7.058;2023-04-28T03:34:37;9.57;;;6.88;;
67108;SDS011;54027;50.786;7.058;2023-04-28T03:37:02;13.38;;;7.22;;
67108;SDS011;54027;50.786;7.058;2023-04-28T03:39:28;13.57;;;7.80;;
67108;SDS011;54027;50.786;7.058;2023-04-28T03:41:53;12.90;;;7.47;;
67108;SDS011;54027;50.786;7.058;2023-04-28T03:44:18;18.48;;;8.40;;
67108;SDS011;54027;50.786;7.058;2023-04-28T03:46:44;11.88;;;7.93;;
67108;SDS011;54027;50.786;7.058;2023-04-28T03:49:10;11.70;;;7.45;;
67108;SDS011;54027;50.786;7.058;2023-04-28T03:51:35;12.93;;;7.22;;
67108;SDS011;54027;50.786;7.058;2023-04-28T03:54:01;14.10;;;7.35;;
67108;SDS011;54027;50.786;7.058;2023-04-28T03:56:26;9.77;;;7.05;;
67108;SDS011;54027;50.786;7.058;2023-04-28T03:58:52;11.85;;;7.40;;
67108;SDS011;54027;50.786;7.058;2023-04-28T04:01:17;16.60;;;8.63;;
67108;SDS011;54027;50.786;7.058;2023-04-28T04:03:42;10.00;;;7.32;;
67108;SDS011;54027;50.786;7.058;2023-04-28T04:06:08;13.07;;;8.23;;
67108;SDS011;54027;50.786;7.058;2023-04-28T04:08:33;15.32;;;7.95;;
67108;SDS011;54027;50.786;7.058;2023-04-28T04:10:59;14.57;;;8.27;;
67108;SDS011;54027;50.786;7.058;2023-04-28T04:13:25;14.07;;;7.95;;
67108;SDS011;54027;50.786;7.058;2023-04-28T04:15:50;12.82;;;7.75;;
67108;SDS011;54027;50.786;7.058;2023-04-28T04:18:17;18.52;;;8.10;;
67108;SDS011;54027;50.786;7.058;2023-04-28T04:20:42;17.42;;;8.20;;
67108;SDS011;54027;50.786;7.058;2023-04-28T04:23:08;10.65;;;8.02;;
67108;SDS011;54027;50.786;7.058;2023-04-28T04:25:34;15.15;;;7.75;;
67108;SDS011;54027;50.786;7.058;2023-04-28T04:28:00;11.88;;;7.60;;
67108;SDS011;54027;50.786;7.058;2023-04-28T04:30:25;14.07;;;7.88;;
67108;SDS011;54027;50.786;7.058;2023-04-28T04:32:50;12.80;;;8.77;;
67108;SDS011;54027;50.786;7.058;2023-04-28T04:35:16;12.70;;;7.85;;
67108;SDS011;54027;50.786;7.058;2023-04-28T04:37:41;14.15;;;8.00;;
67108;SDS011;54027;50.786;7.058;2023-04-28T04:40:07;13.43;;;7.25;;
67108;SDS011;54027;50.786;7.058;2023-04-28T04:42:33;13.63;;;7.22;;
67108;SDS011;54027;50.786;7.058;2023-04-28T04:44:58;11.02;;;7.05;;
67108;SDS011;54027;50.786;7.058;2023-04-28T04:47:24;12.65;;;6.97;;
67108;SDS011;54027;50.786;7.058;2023-04-28T04:49:49;9.95;;;6.68;;
67108;SDS011;54027;50.786;7.058;2023-04-28T04:52:16;17.38;;;8.57;;
67108;SDS011;54027;50.786;7.058;2023-04-28T04:54:41;13.82;;;7.28;;
67108;SDS011;54027;50.786;7.058;2023-04-28T04:57:07;17.50;;;8.05;;
67108;SDS011;54027;50.786;7.058;2023-04-28T04:59:35;11.95;;;7.30;;
67108;SDS011;54027;50.786;7.058;2023-04-28T05:02:01;14.10;;;7.20;;
67108;SDS011;54027;50.786;7.058;2023-04-28T05:04:26;15.23;;;8.25;;
67108;SDS011;54027;50.786;7.058;2023-04-28T05:06:52;12.52;;;7.82;;
67108;SDS011;54027;50.786;7.058;2023-04-28T05:09:17;16.70;;;7.40;;
67108;SDS011;54027;50.786;7.058;2023-04-28T05:11:43;14.30;;;7.47;;
67108;SDS011;54027;50.786;7.058;2023-04-28T05:14:09;13.27;;;7.82;;
67108;SDS011;54027;50.786;7.058;2023-04-28T05:16:34;13.60;;;7.63;;
67108;SDS011;54027;50.786;7.058;2023-04-28T05:19:01;13.52;;;8.50;;
67108;SDS011;54027;50.786;7.058;2023-04-28T05:21:26;11.57;;;8.00;;
67108;SDS011;54027;50.786;7.058;2023-04-28T05:23:52;12.48;;;8.18;;
67108;SDS011;54027;50.786;7.058;2023-04-28T05:26:18;15.00;;;8.48;;
67108;SDS011;54027;50.786;7.058;2023-04-28T05:28:43;16.95;;;10.10;;
67108;SDS011;54027;50.786;7.058;2023-04-28T05:31:09;13.88;;;9.43;;
67108;SDS011;54027;50.786;7.058;2023-04-28T05:33:34;16.63;;;10.02;;
67108;SDS011;54027;50.786;7.058;2023-04-28T05:36:00;17.85;;;9.48;;
67108;SDS011;54027;50.786;7.058;2023-04-28T05:38:25;21.65;;;10.40;;
67108;SDS011;54027;50.786;7.058;2023-04-28T05:40:51;14.68;;;9.95;;
67108;SDS011;54027;50.786;7.058;2023-04-28T05:43:16;15.70;;;9.18;;
67108;SDS011;54027;50.786;7.058;2023-04-28T05:45:42;18.88;;;10.65;;
67108;SDS011;54027;50.786;7.058;2023-04-28T05:48:07;18.10;;;11.35;;
67108;SDS011;54027;50.786;7.058;2023-04-28T05:50:32;19.35;;;11.38;;
67108;SDS011;54027;50.786;7.058;2023-04-28T05:52:58;16.27;;;10.20;;
67108;SDS011;54027;50.786;7.058;2023-04-28T05:55:23;19.23;;;10.63;;
67108;SDS011;54027;50.786;7.058;2023-04-28T05:57:49;20.00;;;11.25;;
67108;SDS011;54027;50.786;7.058;2023-04-28T06:00:39;17.92;;;10.95;;
67108;SDS011;54027;50.786;7.058;2023-04-28T06:03:26;20.98;;;11.75;;
67108;SDS011;54027;50.786;7.058;2023-04-28T06:06:13;16.13;;;9.90;;
67108;SDS011;54027;50.786;7.058;2023-04-28T06:09:04;16.17;;;10.18;;
67108;SDS011;54027;50.786;7.058;2023-04-28T06:11:48;18.25;;;10.50;;
67108;SDS011;54027;50.786;7.058;2023-04-28T06:14:38;18.20;;;10.75;;
67108;SDS011;54027;50.786;7.058;2023-04-28T06:17:24;14.52;;;10.32;;
67108;SDS011;54027;50.786;7.058;2023-04-28T06:34:15;14.82;;;9.80;;
67108;SDS011;54027;50.786;7.058;2023-04-28T06:36:40;12.57;;;9.88;;
67108;SDS011;54027;50.786;7.058;2023-04-28T06:39:05;16.25;;;9.98;;
67108;SDS011;54027;50.786;7.058;2023-04-28T06:41:32;16.92;;;9.90;;
67108;SDS011;54027;50.786;7.058;2023-04-28T06:43:57;15.27;;;10.13;;
67108;SDS011;54027;50.786;7.058;2023-04-28T06:46:23;16.08;;;10.38;;
67108;SDS011;54027;50.786;7.058;2023-04-28T06:48:48;13.18;;;9.40;;
67108;SDS011;54027;50.786;7.058;2023-04-28T06:51:13;16.60;;;9.60;;
67108;SDS011;54027;50.786;7.058;2023-04-28T06:53:39;18.92;;;9.80;;
67108;SDS011;54027;50.786;7.058;2023-04-28T06:56:04;17.75;;;10.13;;
67108;SDS011;54027;50.786;7.058;2023-04-28T06:58:30;17.33;;;10.57;;
67108;SDS011;54027;50.786;7.058;2023-04-28T07:00:56;16.33;;;9.90;;
67108;SDS011;54027;50.786;7.058;2023-04-28T07:03:21;15.70;;;8.35;;
67108;SDS011;54027;50.786;7.058;2023-04-28T07:05:47;13.85;;;8.95;;
67108;SDS011;54027;50.786;7.058;2023-04-28T07:08:12;15.65;;;10.07;;
67108;SDS011;54027;50.786;7.058;2023-04-28T07:10:38;14.88;;;9.00;;
67108;SDS011;54027;50.786;7.058;2023-04-28T07:13:03;17.48;;;9.18;;
67108;SDS011;54027;50.786;7.058;2023-04-28T07:15:29;14.18;;;8.75;;
67108;SDS011;54027;50.786;7.058;2023-04-28T07:17:55;14.07;;;8.23;;
67108;SDS011;54027;50.786;7.058;2023-04-28T07:20:20;12.65;;;8.93;;
67108;SDS011;54027;50.786;7.058;2023-04-28T07:22:46;10.75;;;7.63;;
67108;SDS011;54027;50.786;7.058;2023-04-28T07:25:11;11.00;;;8.07;;
67108;SDS011;54027;50.786;7.058;2023-04-28T07:27:37;11.23;;;7.40;;
67108;SDS011;54027;50.786;7.058;2023-04-28T07:30:02;9.65;;;7.68;;
67108;SDS011;54027;50.786;7.058;2023-04-28T07:32:28;15.52;;;7.70;;
67108;SDS011;54027;50.786;7.058;2023-04-28T07:34:54;10.88;;;6.97;;
67108;SDS011;54027;50.786;7.058;2023-04-28T07:37:19;10.15;;;7.15;;
67108;SDS011;54027;50.786;7.058;2023-04-28T07:39:45;14.05;;;7.80;;
67108;SDS011;54027;50.786;7.058;2023-04-28T07:42:11;10.90;;;6.32;;
67108;SDS011;54027;50.786;7.058;2023-04-28T07:44:36;9.90;;;6.88;;
67108;SDS011;54027;50.786;7.058;2023-04-28T07:47:02;13.38;;;7.35;;
67108;SDS011;54027;50.786;7.058;2023-04-28T07:49:27;10.07;;;6.55;;
67108;SDS011;54027;50.786;7.058;2023-04-28T07:51:54;12.52;;;7.50;;
67108;SDS011;54027;50.786;7.058;2023-04-28T07:54:20;10.25;;;6.22;;
67108;SDS011;54027;50.786;7.058;2023-04-28T07:56:46;10.85;;;6.85;;
67108;SDS011;54027;50.786;7.058;2023-04-28T07:59:11;8.88;;;6.35;;
67108;SDS011;54027;50.786;7.058;2023-04-28T08:01:37;9.80;;;5.82;;
67108;SDS011;54027;50.786;7.058;2023-04-28T08:04:03;11.55;;;6.95;;
67108;SDS011;54027;50.786;7.058;2023-04-28T08:06:28;15.10;;;6.78;;
67108;SDS011;54027;50.786;7.058;2023-04-28T08:08:53;9.25;;;6.47;;
67108;SDS011;54027;50.786;7.058;2023-04-28T08:11:19;10.85;;;6.43;;
67108;SDS011;54027;50.786;7.058;2023-04-28T08:13:46;8.32;;;5.82;;
67108;SDS011;54027;50.786;7.058;2023-04-28T08:16:12;9.70;;;6.50;;
67108;SDS011;54027;50.786;7.058;2023-04-28T08:18:38;13.38;;;7.15;;
67108;SDS011;54027;50.786;7.058;2023-04-28T08:21:04;10.10;;;7.47;;
67108;SDS011;54027;50.786;7.058;2023-04-28T08:23:30;10.57;;;6.35;;
67108;SDS011;54027;50.786;7.058;2023-04-28T08:25:56;12.52;;;6.90;;
67108;SDS011;54027;50.786;7.058;2023-04-28T08:28:21;13.15;;;6.55;;
67108;SDS011;54027;50.786;7.058;2023-04-28T08:30:47;13.32;;;6.55;;
67108;SDS011;54027;50.786;7.058;2023-04-28T08:33:13;8.95;;;7.03;;
67108;SDS011;54027;50.786;7.058;2023-04-28T08:35:38;10.52;;;7.47;;
67108;SDS011;54027;50.786;7.058;2023-04-28T08:38:04;8.52;;;6.18;;
67108;SDS011;54027;50.786;7.058;2023-04-28T08:40:31;11.02;;;7.43;;
67108;SDS011;54027;50.786;7.058;2023-04-28T08:42:57;9.38;;;6.35;;
67108;SDS011;54027;50.786;7.058;2023-04-28T08:45:23;12.25;;;6.65;;
67108;SDS011;54027;50.786;7.058;2023-04-28T08:47:49;11.82;;;6.10;;
67108;SDS011;54027;50.786;7.058;2023-04-28T08:50:15;9.35;;;6.15;;
67108;SDS011;54027;50.786;7.058;2023-04-28T08:52:45;10.98;;;6.30;;
67108;SDS011;54027;50.786;7.058;2023-04-28T08:55:12;12.15;;;6.00;;
67108;SDS011;54027;50.786;7.058;2023-04-28T08:57:38;8.48;;;5.88;;
67108;SDS011;54027;50.786;7.058;2023-04-28T09:00:07;13.70;;;6.00;;
67108;SDS011;54027;50.786;7.058;2023-04-28T09:02:33;8.27;;;5.32;;
67108;SDS011;54027;50.786;7.058;2023-04-28T09:05:01;11.13;;;5.13;;
67108;SDS011;54027;50.786;7.058;2023-04-28T09:07:28;8.18;;;5.78;;
67108;SDS011;54027;50.786;7.058;2023-04-28T09:12:42;10.27;;;6.20;;
67108;SDS011;54027;50.786;7.058;2023-04-28T09:15:07;9.27;;;6.10;;
67108;SDS011;54027;50.786;7.058;2023-04-28T09:17:46;8.60;;;5.75;;
67108;SDS011;54027;50.786;7.058;2023-04-28T09:20:24;9.60;;;6.40;;
67108;SDS011;54027;50.786;7.058;2023-04-28T09:22:51;12.77;;;7.28;;
67108;SDS011;54027;50.786;7.058;2023-04-28T09:25:17;10.38;;;6.20;;
67108;SDS011;54027;50.786;7.058;2023-04-28T09:27:45;8.90;;;6.35;;
67108;SDS011;54027;50.786;7.058;2023-04-28T09:30:11;8.05;;;6.05;;
67108;SDS011;54027;50.786;7.058;2023-04-28T09:32:36;11.00;;;6.05;;
67108;SDS011;54027;50.786;7.058;2023-04-28T09:35:02;10.55;;;6.65;;
67108;SDS011;54027;50.786;7.058;2023-04-28T09:37:29;10.48;;;6.20;;
67108;SDS011;54027;50.786;7.058;2023-04-28T09:39:56;7.13;;;6.00;;
67108;SDS011;54027;50.786;7.058;2023-04-28T09:42:35;9.88;;;6.45;;
67108;SDS011;54027;50.786;7.058;2023-04-28T09:45:05;12.50;;;6.90;;
67108;SDS011;54027;50.786;7.058;2023-04-28T09:47:42;10.93;;;6.50;;
67108;SDS011;54027;50.786;7.058;2023-04-28T09:50:11;12.93;;;6.80;;
67108;SDS011;54027;50.786;7.058;2023-04-28T09:52:45;9.43;;;6.60;;
67108;SDS011;54027;50.786;7.058;2023-04-28T09:55:21;9.20;;;6.85;;
67108;SDS011;54027;50.786;7.058;2023-04-28T09:57:47;11.30;;;7.50;;
67108;SDS011;54027;50.786;7.058;2023-04-28T10:00:16;11.38;;;8.43;;
67108;SDS011;54027;50.786;7.058;2023-04-28T10:02:42;11.82;;;6.90;;
67108;SDS011;54027;50.786;7.058;2023-04-28T10:05:09;16.65;;;8.00;;
67108;SDS011;54027;50.786;7.058;2023-04-28T10:07:34;10.90;;;7.80;;
67108;SDS011;54027;50.786;7.058;2023-04-28T10:10:00;13.20;;;8.35;;
67108;SDS011;54027;50.786;7.058;2023-04-28T10:12:28;9.80;;;7.13;;
67108;SDS011;54027;50.786;7.058;2023-04-28T10:14:54;11.43;;;7.70;;
67108;SDS011;54027;50.786;7.058;2023-04-28T10:17:21;17.45;;;8.90;;
67108;SDS011;54027;50.786;7.058;2023-04-28T10:19:49;14.13;;;8.88;;
67108;SDS011;54027;50.786;7.058;2023-04-28T10:27:58;10.32;;;7.72;;
67108;SDS011;54027;50.786;7.058;2023-04-28T10:30:28;12.68;;;7.35;;
67108;SDS011;54027;50.786;7.058;2023-04-28T10:35:44;12.70;;;7.50;;
67108;SDS011;54027;50.786;7.058;2023-04-28T10:48:20;13.27;;;8.80;;
67108;SDS011;54027;50.786;7.058;2023-04-28T11:12:23;5.72;;;4.72;;
67108;SDS011;54027;50.786;7.058;2023-04-28T11:21:50;6.63;;;4.65;;
67108;SDS011;54027;50.786;7.058;2023-04-28T11:24:17;5.97;;;4.40;;
67108;SDS011;54027;50.786;7.058;2023-04-28T11:26:42;4.53;;;4.13;;
67108;SDS011;54027;50.786;7.058;2023-04-28T11:29:09;4.75;;;3.70;;
67108;SDS011;54027;50.786;7.058;2023-04-28T11:31:35;4.97;;;4.15;;
67108;SDS011;54027;50.786;7.058;2023-04-28T11:36:32;5.22;;;3.40;;
67108;SDS011;54027;50.786;7.058;2023-04-28T11:39:02;6.60;;;4.25;;
67108;SDS011;54027;50.786;7.058;2023-04-28T11:41:29;4.55;;;3.50;;
67108;SDS011;54027;50.786;7.058;2023-04-28T11:43:56;8.77;;;4.35;;
67108;SDS011;54027;50.786;7.058;2023-04-28T11:46:22;4.65;;;3.97;;
67108;SDS011;54027;50.786;7.058;2023-04-28T11:48:54;4.45;;;3.97;;
67108;SDS011;54027;50.786;7.058;2023-04-28T11:51:29;4.65;;;4.15;;
67108;SDS011;54027;50.786;7.058;2023-04-28T11:53:59;5.07;;;4.57;;
67108;SDS011;54027;50.786;7.058;2023-04-28T11:56:26;4.80;;;4.28;;
67108;SDS011;54027;50.786;7.058;2023-04-28T11:58:58;4.38;;;3.97;;
67108;SDS011;54027;50.786;7.058;2023-04-28T12:01:26;5.05;;;4.28;;
67108;SDS011;54027;50.786;7.058;2023-04-28T12:03:52;5.07;;;3.80;;
67108;SDS011;54027;50.786;7.058;2023-04-28T12:06:19;6.88;;;4.55;;
67108;SDS011;54027;50.786;7.058;2023-04-28T12:08:44;4.68;;;4.25;;
67108;SDS011;54027;50.786;7.058;2023-04-28T12:11:10;5.00;;;4.45;;
67108;SDS011;54027;50.786;7.058;2023-04-28T12:13:37;5.45;;;4.20;;
67108;SDS011;54027;50.786;7.058;2023-04-28T12:16:04;4.68;;;4.10;;
67108;SDS011;54027;50.786;7.058;2023-04-28T12:18:34;5.15;;;4.65;;
67108;SDS011;54027;50.786;7.058;2023-04-28T12:21:00;5.53;;;4.68;;
67108;SDS011;54027;50.786;7.058;2023-04-28T12:23:34;6.45;;;3.90;;
67108;SDS011;54027;50.786;7.058;2023-04-28T12:26:00;4.60;;;3.40;;
67108;SDS011;54027;50.786;7.058;2023-04-28T12:28:36;3.88;;;3.05;;
67108;SDS011;54027;50.786;7.058;2023-04-28T12:31:05;3.90;;;3.50;;
67108;SDS011;54027;50.786;7.058;2023-04-28T12:33:35;4.53;;;4.10;;
67108;SDS011;54027;50.786;7.058;2023-04-28T12:36:03;4.68;;;3.50;;
67108;SDS011;54027;50.786;7.058;2023-04-28T12:38:30;4.82;;;3.72;;
67108;SDS011;54027;50.786;7.058;2023-04-28T12:40:59;3.80;;;3.50;;
67108;SDS011;54027;50.786;7.058;2023-04-28T12:43:25;3.72;;;3.42;;
67108;SDS011;54027;50.786;7.058;2023-04-28T12:45:53;5.35;;;3.88;;
67108;SDS011;54027;50.786;7.058;2023-04-28T12:48:19;6.13;;;5.53;;
67108;SDS011;54027;50.786;7.058;2023-04-28T12:50:46;5.93;;;5.32;;
67108;SDS011;54027;50.786;7.058;2023-04-28T12:53:11;6.50;;;5.25;;
67108;SDS011;54027;50.786;7.058;2023-04-28T12:55:37;7.28;;;5.10;;
67108;SDS011;54027;50.786;7.058;2023-04-28T12:58:05;4.78;;;4.28;;
67108;SDS011;54027;50.786;7.058;2023-04-28T13:00:30;4.15;;;3.72;;
67108;SDS011;54027;50.786;7.058;2023-04-28T13:02:56;5.03;;;4.47;;
67108;SDS011;54027;50.786;7.058;2023-04-28T13:05:22;5.63;;;4.75;;
67108;SDS011;54027;50.786;7.058;2023-04-28T13:07:48;5.22;;;4.75;;
67108;SDS011;54027;50.786;7.058;2023-04-28T13:10:14;5.22;;;4.50;;
67108;SDS011;54027;50.786;7.058;2023-04-28T13:12:40;5.20;;;4.70;;
67108;SDS011;54027;50.786;7.058;2023-04-28T13:15:06;5.20;;;4.70;;
67108;SDS011;54027;50.786;7.058;2023-04-28T13:17:31;6.35;;;4.90;;
67108;SDS011;54027;50.786;7.058;2023-04-28T13:19:58;5.90;;;5.30;;
67108;SDS011;54027;50.786;7.058;2023-04-28T13:22:25;5.88;;;5.28;;
67108;SDS011;54027;50.786;7.058;2023-04-28T13:24:50;5.05;;;4.60;;
67108;SDS011;54027;50.786;7.058;2023-04-28T13:27:16;6.68;;;4.63;;
67108;SDS011;54027;50.786;7.058;2023-04-28T13:29:42;5.72;;;4.78;;
67108;SDS011;54027;50.786;7.058;2023-04-28T13:32:08;4.82;;;4.18;;
67108;SDS011;54027;50.786;7.058;2023-04-28T13:34:34;6.70;;;4.85;;
67108;SDS011;54027;50.786;7.058;2023-04-28T13:37:01;6.30;;;4.20;;
67108;SDS011;54027;50.786;7.058;2023-04-28T13:39:27;6.40;;;5.22;;
67108;SDS011;54027;50.786;7.058;2023-04-28T13:41:52;6.70;;;5.43;;
67108;SDS011;54027;50.786;7.058;2023-04-28T13:44:18;8.27;;;5.47;;
67108;SDS011;54027;50.786;7.058;2023-04-28T13:46:43;5.07;;;4.57;;
67108;SDS011;54027;50.786;7.058;2023-04-28T13:49:10;5.50;;;4.90;;
67108;SDS011;54027;50.786;7.058;2023-04-28T13:51:36;5.25;;;4.75;;
67108;SDS011;54027;50.786;7.058;2023-04-28T13:54:01;5.78;;;4.75;;
67108;SDS011;54027;50.786;7.058;2023-04-28T13:56:35;5.32;;;4.80;;
67108;SDS011;54027;50.786;7.058;2023-04-28T13:59:01;5.55;;;4.95;;
67108;SDS011;54027;50.786;7.058;2023-04-28T14:01:27;5.13;;;4.63;;
67108;SDS011;54027;50.786;7.058;2023-04-28T14:03:52;5.63;;;5.03;;
67108;SDS011;54027;50.786;7.058;2023-04-28T14:06:18;6.50;;;5.10;;
67108;SDS011;54027;50.786;7.058;2023-04-28T14:08:43;6.75;;;4.47;;
67108;SDS011;54027;50.786;7.058;2023-04-28T14:11:09;6.10;;;3.67;;
67108;SDS011;54027;50.786;7.058;2023-04-28T14:13:35;3.97;;;3.13;;
67108;SDS011;54027;50.786;7.058;2023-04-28T14:16:01;4.18;;;3.22;;
67108;SDS011;54027;50.786;7.058;2023-04-28T14:18:27;3.95;;;3.42;;
67108;SDS011;54027;50.786;7.058;2023-04-28T14:20:52;3.80;;;2.50;;
67108;SDS011;54027;50.786;7.058;2023-04-28T14:23:18;3.63;;;3.13;;
67108;SDS011;54027;50.786;7.058;2023-04-28T14:25:44;4.25;;;2.92;;
67108;SDS011;54027;50.786;7.058;2023-04-28T14:28:10;4.65;;;3.42;;
67108;SDS011;54027;50.786;7.058;2023-04-28T14:30:36;3.72;;;3.15;;
67108;SDS011;54027;50.786;7.058;2023-04-28T14:33:01;10.13;;;6.38;;
67108;SDS011;54027;50.786;7.058;2023-04-28T14:35:27;7.28;;;5.32;;
67108;SDS011;54027;50.786;7.058;2023-04-28T14:37:54;7.35;;;5.07;;
67108;SDS011;54027;50.786;7.058;2023-04-28T14:40:19;10.63;;;7.15;;
67108;SDS011;54027;50.786;7.058;2023-04-28T14:42:45;4.63;;;3.53;;
67108;SDS011;54027;50.786;7.058;2023-04-28T14:45:11;2.83;;;2.30;;
67108;SDS011;54027;50.786;7.058;2023-04-28T14:47:37;6.03;;;1.70;;
67108;SDS011;54027;50.786;7.058;2023-04-28T14:50:03;3.47;;;1.80;;
67108;SDS011;54027;50.786;7.058;2023-04-28T14:52:29;8.93;;;1.60;;
67108;SDS011;54027;50.786;7.058;2023-04-28T14:54:56;2.08;;;1.35;;
67108;SDS011;54027;50.786;7.058;2023-04-28T14:57:22;1.65;;;1.08;;
67108;SDS011;54027;50.786;7.058;2023-04-28T14:59:48;3.13;;;1.27;;
67108;SDS011;54027;50.786;7.058;2023-04-28T15:02:16;2.15;;;1.17;;
67108;SDS011;54027;50.786;7.058;2023-04-28T15:04:42;2.25;;;1.02;;
67108;SDS011;54027;50.786;7.058;2023-04-28T15:07:10;1.92;;;0.80;;
67108;SDS011;54027;50.786;7.058;2023-04-28T15:09:35;1.70;;;1.25;;
67108;SDS011;54027;50.786;7.058;2023-04-28T15:12:01;2.00;;;1.00;;
67108;SDS011;54027;50.786;7.058;2023-04-28T15:14:27;3.42;;;1.02;;
67108;SDS011;54027;50.786;7.058;2023-04-28T15:16:53;3.72;;;1.20;;
67108;SDS011;54027;50.786;7.058;2023-04-28T15:19:18;1.98;;;0.95;;
67108;SDS011;54027;50.786;7.058;2023-04-28T15:21:44;1.00;;;0.88;;
67108;SDS011;54027;50.786;7.058;2023-04-28T15:24:10;1.27;;;0.63;;
67108;SDS011;54027;50.786;7.058;2023-04-28T15:26:36;1.23;;;0.85;;
67108;SDS011;54027;50.786;7.058;2023-04-28T15:29:04;4.00;;;0.70;;
67108;SDS011;54027;50.786;7.058;2023-04-28T15:31:29;3.45;;;0.70;;
67108;SDS011;54027;50.786;7.058;2023-04-28T15:33:55;2.90;;;0.80;;
67108;SDS011;54027;50.786;7.058;2023-04-28T15:36:20;3.63;;;1.10;;
67108;SDS011;54027;50.786;7.058;2023-04-28T15:38:46;2.47;;;1.00;;
67108;SDS011;54027;50.786;7.058;2023-04-28T15:41:13;7.72;;;0.93;;
67108;SDS011;54027;50.786;7.058;2023-04-28T15:43:39;1.30;;;1.00;;
67108;SDS011;54027;50.786;7.058;2023-04-28T15:46:05;1.58;;;1.05;;